首页
METAR-TAF:

METAR-TAF

机场 :

伊瓦洛机场

Ivalo, 芬兰

纬度: 68-37N, 经度: 027-25E, 海拔: 147米

当前天气观测

该预报发布于23分钟前的04:20 UTC
风速12节,风向,在南转南东西南之间变化
温度 -5°C
湿度 79%
气压 986 hPa
能见度10公里或以上
阴天层高于1300英尺
小阵雪

METAR: EFIV 210420Z AUTO 19012KT 150V230 9999 -SHSN OVC013 M05/M08 Q0986

时间: 06:43 (04:43 UTC)

预报

该预报发布于2小时和20分钟前的02:23 UTC
预报有效从21日的 03点(UTC)到 21日的 12点(UTC)
风速15节,风向
能見度: 8000
多云层高于2000英尺
小雪
短暂存在
从 21日的 03点(UTC)到 21日的 06点(UTC)
能見度: 5000
短暂存在
从 21日的 06点(UTC)到 21日的 12点(UTC)
能見度: 2000
多云层高于1400英尺

TAF: EFIV 210223Z 2103/2112 18015KT 8000 -SN BKN020 TEMPO 2103/2106 5000 TEMPO 2106/2112 2000 SN BKN014

超过4000个机场的气象观测和天气预报(METAR&TAF报告)。

可查询的气象台以黄色和红色小点在地图上表示。

将鼠标移到小点上方,可查看气象台名称。

然后点击查看天气观测和预报。

如需切换地图:点击带黑十字的绿色按钮放大地图;点击带横线的绿色按钮缩小地图;或者点击绿色箭头查看邻近地区的地图。


METAR-TAF: